sensor_id;sensor_type;location;lat;lon;timestamp;P1;durP1;ratioP1;P2;durP2;ratioP2
32228;SDS011;18717;48.034;11.186;2023-12-28T00:01:10;12.27;;;10.23;;
32228;SDS011;18717;48.034;11.186;2023-12-28T00:03:38;11.43;;;10.27;;
32228;SDS011;18717;48.034;11.186;2023-12-28T00:06:07;15.13;;;11.32;;
32228;SDS011;18717;48.034;11.186;2023-12-28T00:08:36;12.15;;;10.88;;
32228;SDS011;18717;48.034;11.186;2023-12-28T00:11:05;13.85;;;12.20;;
32228;SDS011;18717;48.034;11.186;2023-12-28T00:13:33;15.48;;;11.63;;
32228;SDS011;18717;48.034;11.186;2023-12-28T00:16:01;11.30;;;10.13;;
32228;SDS011;18717;48.034;11.186;2023-12-28T00:18:28;14.32;;;11.32;;
32228;SDS011;18717;48.034;11.186;2023-12-28T00:20:57;15.85;;;11.35;;
32228;SDS011;18717;48.034;11.186;2023-12-28T00:23:24;16.85;;;11.35;;
32228;SDS011;18717;48.034;11.186;2023-12-28T00:25:52;13.85;;;10.23;;
32228;SDS011;18717;48.034;11.186;2023-12-28T00:28:21;14.90;;;11.40;;
32228;SDS011;18717;48.034;11.186;2023-12-28T00:30:49;16.77;;;11.43;;
32228;SDS011;18717;48.034;11.186;2023-12-28T00:33:17;13.70;;;10.45;;
32228;SDS011;18717;48.034;11.186;2023-12-28T00:35:45;15.68;;;10.48;;
32228;SDS011;18717;48.034;11.186;2023-12-28T00:38:12;13.73;;;11.27;;
32228;SDS011;18717;48.034;11.186;2023-12-28T00:40:40;14.93;;;10.98;;
32228;SDS011;18717;48.034;11.186;2023-12-28T00:43:08;13.52;;;11.18;;
32228;SDS011;18717;48.034;11.186;2023-12-28T00:45:37;14.82;;;10.48;;
32228;SDS011;18717;48.034;11.186;2023-12-28T00:48:05;15.63;;;10.90;;
32228;SDS011;18717;48.034;11.186;2023-12-28T00:50:33;13.85;;;11.15;;
32228;SDS011;18717;48.034;11.186;2023-12-28T00:53:01;18.27;;;10.88;;
32228;SDS011;18717;48.034;11.186;2023-12-28T00:55:29;12.38;;;10.43;;
32228;SDS011;18717;48.034;11.186;2023-12-28T00:57:56;11.30;;;10.00;;
32228;SDS011;18717;48.034;11.186;2023-12-28T01:00:25;12.07;;;10.80;;
32228;SDS011;18717;48.034;11.186;2023-12-28T01:02:54;13.35;;;10.10;;
32228;SDS011;18717;48.034;11.186;2023-12-28T01:05:21;11.20;;;10.00;;
32228;SDS011;18717;48.034;11.186;2023-12-28T01:07:52;11.23;;;10.02;;
32228;SDS011;18717;48.034;11.186;2023-12-28T01:10:20;12.85;;;10.70;;
32228;SDS011;18717;48.034;11.186;2023-12-28T01:12:48;11.93;;;9.65;;
32228;SDS011;18717;48.034;11.186;2023-12-28T01:15:16;11.07;;;9.98;;
32228;SDS011;18717;48.034;11.186;2023-12-28T01:17:46;11.98;;;10.20;;
32228;SDS011;18717;48.034;11.186;2023-12-28T01:20:16;11.50;;;10.20;;
32228;SDS011;18717;48.034;11.186;2023-12-28T01:22:43;14.35;;;11.65;;
32228;SDS011;18717;48.034;11.186;2023-12-28T01:25:11;15.77;;;9.93;;
32228;SDS011;18717;48.034;11.186;2023-12-28T01:27:39;12.07;;;9.40;;
32228;SDS011;18717;48.034;11.186;2023-12-28T01:30:07;12.25;;;10.05;;
32228;SDS011;18717;48.034;11.186;2023-12-28T01:32:35;13.02;;;9.30;;
32228;SDS011;18717;48.034;11.186;2023-12-28T01:35:03;11.45;;;9.45;;
32228;SDS011;18717;48.034;11.186;2023-12-28T01:37:33;10.52;;;9.43;;
32228;SDS011;18717;48.034;11.186;2023-12-28T01:40:00;9.73;;;8.73;;
32228;SDS011;18717;48.034;11.186;2023-12-28T01:42:28;11.63;;;9.27;;
32228;SDS011;18717;48.034;11.186;2023-12-28T01:44:57;10.68;;;9.02;;
32228;SDS011;18717;48.034;11.186;2023-12-28T01:47:25;9.95;;;8.98;;
32228;SDS011;18717;48.034;11.186;2023-12-28T01:49:53;9.23;;;8.40;;
32228;SDS011;18717;48.034;11.186;2023-12-28T01:52:21;10.30;;;8.88;;
32228;SDS011;18717;48.034;11.186;2023-12-28T01:54:50;9.93;;;8.63;;
32228;SDS011;18717;48.034;11.186;2023-12-28T01:57:19;8.70;;;7.85;;
32228;SDS011;18717;48.034;11.186;2023-12-28T01:59:47;9.25;;;8.40;;
32228;SDS011;18717;48.034;11.186;2023-12-28T02:02:14;10.35;;;8.88;;
32228;SDS011;18717;48.034;11.186;2023-12-28T02:04:43;9.30;;;8.38;;
32228;SDS011;18717;48.034;11.186;2023-12-28T02:07:11;9.20;;;8.30;;
32228;SDS011;18717;48.034;11.186;2023-12-28T02:09:40;10.40;;;8.57;;
32228;SDS011;18717;48.034;11.186;2023-12-28T02:12:09;10.60;;;9.50;;
32228;SDS011;18717;48.034;11.186;2023-12-28T02:14:37;11.18;;;10.02;;
32228;SDS011;18717;48.034;11.186;2023-12-28T02:17:06;11.25;;;10.15;;
32228;SDS011;18717;48.034;11.186;2023-12-28T02:19:40;10.27;;;9.18;;
32228;SDS011;18717;48.034;11.186;2023-12-28T02:22:11;10.15;;;8.57;;
32228;SDS011;18717;48.034;11.186;2023-12-28T02:27:30;9.63;;;8.73;;
32228;SDS011;18717;48.034;11.186;2023-12-28T02:29:58;9.27;;;8.18;;
32228;SDS011;18717;48.034;11.186;2023-12-28T02:32:28;10.20;;;9.02;;
32228;SDS011;18717;48.034;11.186;2023-12-28T02:35:06;12.07;;;8.82;;
32228;SDS011;18717;48.034;11.186;2023-12-28T02:37:39;8.63;;;7.55;;
32228;SDS011;18717;48.034;11.186;2023-12-28T02:40:08;9.77;;;8.95;;
32228;SDS011;18717;48.034;11.186;2023-12-28T02:42:37;9.38;;;8.38;;
32228;SDS011;18717;48.034;11.186;2023-12-28T02:45:06;11.77;;;8.25;;
32228;SDS011;18717;48.034;11.186;2023-12-28T02:47:34;14.85;;;8.48;;
32228;SDS011;18717;48.034;11.186;2023-12-28T02:50:01;8.50;;;7.68;;
32228;SDS011;18717;48.034;11.186;2023-12-28T02:52:29;10.43;;;8.27;;
32228;SDS011;18717;48.034;11.186;2023-12-28T02:54:57;9.20;;;8.43;;
32228;SDS011;18717;48.034;11.186;2023-12-28T02:57:26;9.88;;;8.90;;
32228;SDS011;18717;48.034;11.186;2023-12-28T02:59:54;10.48;;;8.88;;
32228;SDS011;18717;48.034;11.186;2023-12-28T03:02:23;10.13;;;9.13;;
32228;SDS011;18717;48.034;11.186;2023-12-28T03:04:50;9.98;;;8.50;;
32228;SDS011;18717;48.034;11.186;2023-12-28T03:07:18;9.98;;;9.00;;
32228;SDS011;18717;48.034;11.186;2023-12-28T03:09:46;8.23;;;7.43;;
32228;SDS011;18717;48.034;11.186;2023-12-28T03:12:14;7.95;;;7.15;;
32228;SDS011;18717;48.034;11.186;2023-12-28T03:14:44;10.02;;;7.97;;
32228;SDS011;18717;48.034;11.186;2023-12-28T03:17:12;9.32;;;7.28;;
32228;SDS011;18717;48.034;11.186;2023-12-28T03:19:40;7.82;;;7.13;;
32228;SDS011;18717;48.034;11.186;2023-12-28T03:22:08;8.27;;;7.53;;
32228;SDS011;18717;48.034;11.186;2023-12-28T03:24:36;9.65;;;7.97;;
32228;SDS011;18717;48.034;11.186;2023-12-28T03:27:04;8.20;;;7.53;;
32228;SDS011;18717;48.034;11.186;2023-12-28T03:29:32;8.57;;;7.75;;
32228;SDS011;18717;48.034;11.186;2023-12-28T03:32:01;7.93;;;7.32;;
32228;SDS011;18717;48.034;11.186;2023-12-28T03:34:29;7.22;;;6.72;;
32228;SDS011;18717;48.034;11.186;2023-12-28T03:36:57;7.80;;;7.00;;
32228;SDS011;18717;48.034;11.186;2023-12-28T03:39:25;8.60;;;7.80;;
32228;SDS011;18717;48.034;11.186;2023-12-28T03:41:53;8.02;;;7.43;;
32228;SDS011;18717;48.034;11.186;2023-12-28T03:44:20;7.97;;;7.20;;
32228;SDS011;18717;48.034;11.186;2023-12-28T03:46:48;7.35;;;6.75;;
32228;SDS011;18717;48.034;11.186;2023-12-28T03:49:18;8.35;;;7.65;;
32228;SDS011;18717;48.034;11.186;2023-12-28T03:51:48;7.60;;;6.93;;
32228;SDS011;18717;48.034;11.186;2023-12-28T03:54:17;8.48;;;7.55;;
32228;SDS011;18717;48.034;11.186;2023-12-28T03:56:45;7.30;;;6.68;;
32228;SDS011;18717;48.034;11.186;2023-12-28T03:59:13;7.53;;;6.80;;
32228;SDS011;18717;48.034;11.186;2023-12-28T04:01:42;8.43;;;7.60;;
32228;SDS011;18717;48.034;11.186;2023-12-28T04:04:10;6.45;;;6.05;;
32228;SDS011;18717;48.034;11.186;2023-12-28T04:06:39;6.60;;;6.20;;
32228;SDS011;18717;48.034;11.186;2023-12-28T04:09:08;7.25;;;6.70;;
32228;SDS011;18717;48.034;11.186;2023-12-28T04:11:36;6.80;;;6.30;;
32228;SDS011;18717;48.034;11.186;2023-12-28T04:14:04;7.18;;;6.65;;
32228;SDS011;18717;48.034;11.186;2023-12-28T04:16:31;6.57;;;6.18;;
32228;SDS011;18717;48.034;11.186;2023-12-28T04:18:59;7.30;;;6.80;;
32228;SDS011;18717;48.034;11.186;2023-12-28T04:21:27;7.43;;;6.80;;
32228;SDS011;18717;48.034;11.186;2023-12-28T04:23:56;7.07;;;6.47;;
32228;SDS011;18717;48.034;11.186;2023-12-28T04:26:24;6.72;;;6.13;;
32228;SDS011;18717;48.034;11.186;2023-12-28T04:28:52;7.30;;;6.80;;
32228;SDS011;18717;48.034;11.186;2023-12-28T04:31:19;7.65;;;7.05;;
32228;SDS011;18717;48.034;11.186;2023-12-28T04:33:48;8.23;;;7.38;;
32228;SDS011;18717;48.034;11.186;2023-12-28T04:36:16;7.10;;;6.47;;
32228;SDS011;18717;48.034;11.186;2023-12-28T04:38:43;8.25;;;7.22;;
32228;SDS011;18717;48.034;11.186;2023-12-28T04:41:13;7.75;;;7.15;;
32228;SDS011;18717;48.034;11.186;2023-12-28T04:43:40;7.85;;;7.15;;
32228;SDS011;18717;48.034;11.186;2023-12-28T04:46:08;8.35;;;7.05;;
32228;SDS011;18717;48.034;11.186;2023-12-28T04:48:36;9.82;;;8.18;;
32228;SDS011;18717;48.034;11.186;2023-12-28T04:51:04;8.98;;;7.30;;
32228;SDS011;18717;48.034;11.186;2023-12-28T04:53:32;8.02;;;7.38;;
32228;SDS011;18717;48.034;11.186;2023-12-28T04:56:00;7.55;;;7.00;;
32228;SDS011;18717;48.034;11.186;2023-12-28T04:58:29;7.38;;;6.70;;
32228;SDS011;18717;48.034;11.186;2023-12-28T05:00:57;8.30;;;7.63;;
32228;SDS011;18717;48.034;11.186;2023-12-28T05:03:24;7.45;;;6.82;;
32228;SDS011;18717;48.034;11.186;2023-12-28T05:05:52;8.30;;;7.60;;
32228;SDS011;18717;48.034;11.186;2023-12-28T05:08:20;8.35;;;7.60;;
32228;SDS011;18717;48.034;11.186;2023-12-28T05:10:48;7.53;;;6.78;;
32228;SDS011;18717;48.034;11.186;2023-12-28T05:13:16;8.05;;;7.20;;
32228;SDS011;18717;48.034;11.186;2023-12-28T05:15:45;7.38;;;6.80;;
32228;SDS011;18717;48.034;11.186;2023-12-28T05:18:13;6.78;;;6.28;;
32228;SDS011;18717;48.034;11.186;2023-12-28T05:20:41;5.90;;;5.57;;
32228;SDS011;18717;48.034;11.186;2023-12-28T05:23:09;6.00;;;5.57;;
32228;SDS011;18717;48.034;11.186;2023-12-28T05:25:36;5.93;;;5.60;;
32228;SDS011;18717;48.034;11.186;2023-12-28T05:28:04;5.88;;;5.55;;
32228;SDS011;18717;48.034;11.186;2023-12-28T05:30:32;6.13;;;5.78;;
32228;SDS011;18717;48.034;11.186;2023-12-28T05:33:01;6.47;;;5.95;;
32228;SDS011;18717;48.034;11.186;2023-12-28T05:35:29;5.85;;;5.55;;
32228;SDS011;18717;48.034;11.186;2023-12-28T05:37:57;7.85;;;7.18;;
32228;SDS011;18717;48.034;11.186;2023-12-28T05:40:25;9.07;;;8.18;;
32228;SDS011;18717;48.034;11.186;2023-12-28T05:42:53;7.57;;;7.10;;
32228;SDS011;18717;48.034;11.186;2023-12-28T05:45:21;7.32;;;6.72;;
32228;SDS011;18717;48.034;11.186;2023-12-28T05:47:48;7.55;;;6.95;;
32228;SDS011;18717;48.034;11.186;2023-12-28T05:50:18;8.40;;;7.60;;
32228;SDS011;18717;48.034;11.186;2023-12-28T05:52:45;9.00;;;8.07;;
32228;SDS011;18717;48.034;11.186;2023-12-28T05:55:13;9.00;;;8.20;;
32228;SDS011;18717;48.034;11.186;2023-12-28T05:57:41;8.23;;;7.47;;
32228;SDS011;18717;48.034;11.186;2023-12-28T06:00:09;8.18;;;7.45;;
32228;SDS011;18717;48.034;11.186;2023-12-28T06:02:38;7.80;;;7.10;;
32228;SDS011;18717;48.034;11.186;2023-12-28T06:05:07;6.90;;;6.40;;
32228;SDS011;18717;48.034;11.186;2023-12-28T06:07:36;6.93;;;6.43;;
32228;SDS011;18717;48.034;11.186;2023-12-28T06:10:04;6.22;;;5.72;;
32228;SDS011;18717;48.034;11.186;2023-12-28T06:12:33;6.95;;;6.45;;
32228;SDS011;18717;48.034;11.186;2023-12-28T06:15:00;7.00;;;6.50;;
32228;SDS011;18717;48.034;11.186;2023-12-28T06:17:29;7.40;;;6.90;;
32228;SDS011;18717;48.034;11.186;2023-12-28T06:20:00;6.57;;;6.13;;
32228;SDS011;18717;48.034;11.186;2023-12-28T06:22:28;7.68;;;7.10;;
32228;SDS011;18717;48.034;11.186;2023-12-28T06:24:58;7.03;;;6.40;;
32228;SDS011;18717;48.034;11.186;2023-12-28T06:27:25;6.53;;;5.82;;
32228;SDS011;18717;48.034;11.186;2023-12-28T06:29:53;7.22;;;6.60;;
32228;SDS011;18717;48.034;11.186;2023-12-28T06:32:21;7.15;;;6.45;;
32228;SDS011;18717;48.034;11.186;2023-12-28T06:34:50;7.90;;;7.25;;
32228;SDS011;18717;48.034;11.186;2023-12-28T06:37:18;11.18;;;7.25;;
32228;SDS011;18717;48.034;11.186;2023-12-28T06:39:46;7.60;;;6.55;;
32228;SDS011;18717;48.034;11.186;2023-12-28T06:42:15;7.05;;;6.45;;
32228;SDS011;18717;48.034;11.186;2023-12-28T06:44:43;7.60;;;6.43;;
32228;SDS011;18717;48.034;11.186;2023-12-28T06:47:11;6.97;;;6.47;;
32228;SDS011;18717;48.034;11.186;2023-12-28T06:49:39;6.43;;;6.03;;
32228;SDS011;18717;48.034;11.186;2023-12-28T06:52:07;5.82;;;5.47;;
32228;SDS011;18717;48.034;11.186;2023-12-28T06:54:35;6.65;;;6.25;;
32228;SDS011;18717;48.034;11.186;2023-12-28T06:57:03;7.30;;;6.75;;
32228;SDS011;18717;48.034;11.186;2023-12-28T06:59:32;7.00;;;6.50;;
32228;SDS011;18717;48.034;11.186;2023-12-28T07:02:00;6.63;;;6.20;;
32228;SDS011;18717;48.034;11.186;2023-12-28T07:04:28;7.45;;;7.05;;
32228;SDS011;18717;48.034;11.186;2023-12-28T07:06:56;6.63;;;6.22;;
32228;SDS011;18717;48.034;11.186;2023-12-28T07:09:24;6.60;;;6.20;;
32228;SDS011;18717;48.034;11.186;2023-12-28T07:11:52;6.70;;;6.40;;
32228;SDS011;18717;48.034;11.186;2023-12-28T07:14:20;6.72;;;6.28;;
32228;SDS011;18717;48.034;11.186;2023-12-28T07:16:49;7.03;;;6.72;;
32228;SDS011;18717;48.034;11.186;2023-12-28T07:19:16;6.97;;;6.57;;
32228;SDS011;18717;48.034;11.186;2023-12-28T07:21:44;6.90;;;6.30;;
32228;SDS011;18717;48.034;11.186;2023-12-28T07:24:12;6.43;;;6.13;;
32228;SDS011;18717;48.034;11.186;2023-12-28T07:26:40;7.50;;;6.90;;
32228;SDS011;18717;48.034;11.186;2023-12-28T07:29:08;7.03;;;6.53;;
32228;SDS011;18717;48.034;11.186;2023-12-28T07:31:35;6.88;;;6.38;;
32228;SDS011;18717;48.034;11.186;2023-12-28T07:34:05;6.75;;;6.38;;
32228;SDS011;18717;48.034;11.186;2023-12-28T07:36:33;7.20;;;6.70;;
32228;SDS011;18717;48.034;11.186;2023-12-28T07:39:01;7.28;;;6.88;;
32228;SDS011;18717;48.034;11.186;2023-12-28T07:41:29;7.05;;;6.75;;
32228;SDS011;18717;48.034;11.186;2023-12-28T07:43:57;8.60;;;7.80;;
32228;SDS011;18717;48.034;11.186;2023-12-28T07:46:25;7.93;;;7.50;;
32228;SDS011;18717;48.034;11.186;2023-12-28T07:48:52;6.88;;;6.47;;
32228;SDS011;18717;48.034;11.186;2023-12-28T07:51:22;8.05;;;7.55;;
32228;SDS011;18717;48.034;11.186;2023-12-28T07:53:49;8.15;;;7.63;;
32228;SDS011;18717;48.034;11.186;2023-12-28T07:56:17;7.32;;;6.93;;
32228;SDS011;18717;48.034;11.186;2023-12-28T07:58:45;7.63;;;7.30;;
32228;SDS011;18717;48.034;11.186;2023-12-28T08:01:13;7.03;;;6.63;;
32228;SDS011;18717;48.034;11.186;2023-12-28T08:03:41;7.20;;;6.90;;
32228;SDS011;18717;48.034;11.186;2023-12-28T08:06:08;7.72;;;7.13;;
32228;SDS011;18717;48.034;11.186;2023-12-28T08:08:40;9.30;;;6.93;;
32228;SDS011;18717;48.034;11.186;2023-12-28T08:11:08;7.65;;;7.15;;
32228;SDS011;18717;48.034;11.186;2023-12-28T08:13:36;7.28;;;6.88;;
32228;SDS011;18717;48.034;11.186;2023-12-28T08:16:04;9.50;;;8.80;;
32228;SDS011;18717;48.034;11.186;2023-12-28T08:18:32;10.27;;;9.50;;
32228;SDS011;18717;48.034;11.186;2023-12-28T08:21:00;8.98;;;8.20;;
32228;SDS011;18717;48.034;11.186;2023-12-28T08:23:28;8.73;;;7.63;;
32228;SDS011;18717;48.034;11.186;2023-12-28T08:25:57;9.68;;;9.02;;
32228;SDS011;18717;48.034;11.186;2023-12-28T08:28:25;9.82;;;9.18;;
32228;SDS011;18717;48.034;11.186;2023-12-28T08:30:53;14.32;;;11.68;;
32228;SDS011;18717;48.034;11.186;2023-12-28T08:33:21;10.38;;;9.38;;
32228;SDS011;18717;48.034;11.186;2023-12-28T08:35:49;9.00;;;8.20;;
32228;SDS011;18717;48.034;11.186;2023-12-28T08:38:16;8.57;;;7.97;;
32228;SDS011;18717;48.034;11.186;2023-12-28T08:40:44;8.18;;;7.60;;
32228;SDS011;18717;48.034;11.186;2023-12-28T08:43:13;8.23;;;7.63;;
32228;SDS011;18717;48.034;11.186;2023-12-28T08:45:41;8.60;;;8.00;;
32228;SDS011;18717;48.034;11.186;2023-12-28T08:48:09;10.70;;;9.65;;
32228;SDS011;18717;48.034;11.186;2023-12-28T08:50:37;8.93;;;8.32;;
32228;SDS011;18717;48.034;11.186;2023-12-28T08:53:04;8.32;;;7.72;;
32228;SDS011;18717;48.034;11.186;2023-12-28T08:55:32;8.43;;;7.93;;
32228;SDS011;18717;48.034;11.186;2023-12-28T08:58:00;7.88;;;7.45;;
32228;SDS011;18717;48.034;11.186;2023-12-28T09:00:30;8.18;;;7.68;;
32228;SDS011;18717;48.034;11.186;2023-12-28T09:02:58;9.10;;;8.25;;
32228;SDS011;18717;48.034;11.186;2023-12-28T09:05:26;9.05;;;8.27;;
32228;SDS011;18717;48.034;11.186;2023-12-28T09:07:54;8.48;;;7.88;;
32228;SDS011;18717;48.034;11.186;2023-12-28T09:10:22;8.52;;;8.02;;
32228;SDS011;18717;48.034;11.186;2023-12-28T09:12:50;9.60;;;8.80;;
32228;SDS011;18717;48.034;11.186;2023-12-28T09:15:18;8.80;;;8.30;;
32228;SDS011;18717;48.034;11.186;2023-12-28T09:17:47;9.40;;;8.80;;
32228;SDS011;18717;48.034;11.186;2023-12-28T09:20:15;8.45;;;7.85;;
32228;SDS011;18717;48.034;11.186;2023-12-28T09:22:43;10.13;;;9.18;;
32228;SDS011;18717;48.034;11.186;2023-12-28T09:25:12;10.27;;;9.32;;
32228;SDS011;18717;48.034;11.186;2023-12-28T09:27:40;10.70;;;9.70;;
32228;SDS011;18717;48.034;11.186;2023-12-28T09:30:08;9.88;;;9.13;;
32228;SDS011;18717;48.034;11.186;2023-12-28T09:32:36;10.57;;;9.85;;
32228;SDS011;18717;48.034;11.186;2023-12-28T09:35:05;10.85;;;9.85;;
32228;SDS011;18717;48.034;11.186;2023-12-28T09:37:33;9.55;;;8.95;;
32228;SDS011;18717;48.034;11.186;2023-12-28T09:40:01;9.85;;;9.05;;
32228;SDS011;18717;48.034;11.186;2023-12-28T09:42:32;9.50;;;8.95;;
32228;SDS011;18717;48.034;11.186;2023-12-28T09:45:04;12.07;;;11.07;;
32228;SDS011;18717;48.034;11.186;2023-12-28T09:47:33;14.07;;;12.90;;
32228;SDS011;18717;48.034;11.186;2023-12-28T09:50:00;13.98;;;13.07;;
32228;SDS011;18717;48.034;11.186;2023-12-28T09:52:30;11.88;;;11.10;;
32228;SDS011;18717;48.034;11.186;2023-12-28T09:54:57;9.15;;;8.65;;
32228;SDS011;18717;48.034;11.186;2023-12-28T09:57:25;8.82;;;8.20;;
32228;SDS011;18717;48.034;11.186;2023-12-28T09:59:53;8.90;;;8.10;;
32228;SDS011;18717;48.034;11.186;2023-12-28T10:02:21;9.05;;;7.70;;
32228;SDS011;18717;48.034;11.186;2023-12-28T10:04:49;8.55;;;8.05;;
32228;SDS011;18717;48.034;11.186;2023-12-28T10:07:17;8.80;;;8.30;;
32228;SDS011;18717;48.034;11.186;2023-12-28T10:09:47;12.18;;;9.95;;
32228;SDS011;18717;48.034;11.186;2023-12-28T10:12:15;10.73;;;9.52;;
32228;SDS011;18717;48.034;11.186;2023-12-28T10:14:43;9.65;;;9.05;;
32228;SDS011;18717;48.034;11.186;2023-12-28T10:17:10;9.00;;;8.40;;
32228;SDS011;18717;48.034;11.186;2023-12-28T10:19:38;8.80;;;8.00;;
32228;SDS011;18717;48.034;11.186;2023-12-28T10:22:06;8.48;;;7.88;;
32228;SDS011;18717;48.034;11.186;2023-12-28T10:24:34;8.15;;;7.75;;
32228;SDS011;18717;48.034;11.186;2023-12-28T10:27:04;8.32;;;7.57;;
32228;SDS011;18717;48.034;11.186;2023-12-28T10:29:31;8.30;;;7.88;;
32228;SDS011;18717;48.034;11.186;2023-12-28T10:32:00;9.55;;;8.85;;
32228;SDS011;18717;48.034;11.186;2023-12-28T10:34:28;9.35;;;8.65;;
32228;SDS011;18717;48.034;11.186;2023-12-28T10:36:57;9.23;;;8.70;;
32228;SDS011;18717;48.034;11.186;2023-12-28T10:39:26;9.30;;;8.70;;
32228;SDS011;18717;48.034;11.186;2023-12-28T10:41:55;9.70;;;9.00;;
32228;SDS011;18717;48.034;11.186;2023-12-28T10:44:24;10.07;;;9.38;;
32228;SDS011;18717;48.034;11.186;2023-12-28T10:46:55;10.68;;;9.82;;
32228;SDS011;18717;48.034;11.186;2023-12-28T10:49:24;11.30;;;10.40;;
32228;SDS011;18717;48.034;11.186;2023-12-28T10:51:53;11.63;;;10.55;;
32228;SDS011;18717;48.034;11.186;2023-12-28T10:54:23;10.23;;;9.52;;
32228;SDS011;18717;48.034;11.186;2023-12-28T10:56:59;11.88;;;10.90;;
32228;SDS011;18717;48.034;11.186;2023-12-28T10:59:33;10.25;;;9.20;;
32228;SDS011;18717;48.034;11.186;2023-12-28T11:02:06;12.85;;;11.85;;
32228;SDS011;18717;48.034;11.186;2023-12-28T11:04:37;10.45;;;9.75;;
32228;SDS011;18717;48.034;11.186;2023-12-28T11:07:09;11.45;;;10.63;;
32228;SDS011;18717;48.034;11.186;2023-12-28T11:09:38;21.95;;;20.00;;
32228;SDS011;18717;48.034;11.186;2023-12-28T11:12:08;9.52;;;8.88;;
32228;SDS011;18717;48.034;11.186;2023-12-28T11:14:38;11.38;;;10.65;;
32228;SDS011;18717;48.034;11.186;2023-12-28T11:17:06;10.98;;;10.20;;
32228;SDS011;18717;48.034;11.186;2023-12-28T11:19:35;11.85;;;10.90;;
32228;SDS011;18717;48.034;11.186;2023-12-28T11:22:03;10.10;;;9.20;;
32228;SDS011;18717;48.034;11.186;2023-12-28T11:24:31;10.05;;;9.50;;
32228;SDS011;18717;48.034;11.186;2023-12-28T11:27:00;11.05;;;10.15;;
32228;SDS011;18717;48.034;11.186;2023-12-28T11:29:29;10.48;;;9.63;;
32228;SDS011;18717;48.034;11.186;2023-12-28T11:31:58;9.40;;;8.77;;
32228;SDS011;18717;48.034;11.186;2023-12-28T11:34:27;10.65;;;9.85;;
32228;SDS011;18717;48.034;11.186;2023-12-28T11:36:56;10.25;;;9.55;;
32228;SDS011;18717;48.034;11.186;2023-12-28T11:39:29;10.77;;;9.82;;
32228;SDS011;18717;48.034;11.186;2023-12-28T11:42:00;9.95;;;9.15;;
32228;SDS011;18717;48.034;11.186;2023-12-28T11:44:30;10.70;;;9.73;;
32228;SDS011;18717;48.034;11.186;2023-12-28T11:46:59;10.80;;;10.18;;
32228;SDS011;18717;48.034;11.186;2023-12-28T11:49:38;10.82;;;10.02;;
32228;SDS011;18717;48.034;11.186;2023-12-28T11:52:07;12.30;;;11.25;;
32228;SDS011;18717;48.034;11.186;2023-12-28T11:54:37;11.23;;;10.27;;
32228;SDS011;18717;48.034;11.186;2023-12-28T11:57:05;11.60;;;10.57;;
32228;SDS011;18717;48.034;11.186;2023-12-28T11:59:33;10.60;;;9.90;;
32228;SDS011;18717;48.034;11.186;2023-12-28T12:02:02;11.75;;;10.85;;
32228;SDS011;18717;48.034;11.186;2023-12-28T12:04:34;10.43;;;9.63;;
32228;SDS011;18717;48.034;11.186;2023-12-28T12:07:02;10.30;;;9.70;;
32228;SDS011;18717;48.034;11.186;2023-12-28T12:09:30;10.45;;;9.77;;
32228;SDS011;18717;48.034;11.186;2023-12-28T12:12:00;11.57;;;10.77;;
32228;SDS011;18717;48.034;11.186;2023-12-28T12:14:28;9.10;;;8.60;;
32228;SDS011;18717;48.034;11.186;2023-12-28T12:16:57;10.75;;;10.05;;
32228;SDS011;18717;48.034;11.186;2023-12-28T12:19:27;9.95;;;9.35;;
32228;SDS011;18717;48.034;11.186;2023-12-28T12:21:56;9.98;;;9.38;;
32228;SDS011;18717;48.034;11.186;2023-12-28T12:24:24;11.75;;;10.95;;
32228;SDS011;18717;48.034;11.186;2023-12-28T12:26:52;12.32;;;10.57;;
32228;SDS011;18717;48.034;11.186;2023-12-28T12:29:20;9.98;;;9.38;;
32228;SDS011;18717;48.034;11.186;2023-12-28T12:31:54;10.27;;;9.57;;
32228;SDS011;18717;48.034;11.186;2023-12-28T12:34:23;10.07;;;9.48;;
32228;SDS011;18717;48.034;11.186;2023-12-28T12:36:52;10.63;;;9.93;;
32228;SDS011;18717;48.034;11.186;2023-12-28T12:39:22;9.93;;;9.43;;
32228;SDS011;18717;48.034;11.186;2023-12-28T12:41:50;10.55;;;9.68;;
32228;SDS011;18717;48.034;11.186;2023-12-28T12:44:19;10.25;;;9.45;;
32228;SDS011;18717;48.034;11.186;2023-12-28T12:46:47;10.70;;;10.00;;
32228;SDS011;18717;48.034;11.186;2023-12-28T12:49:15;10.48;;;9.88;;
32228;SDS011;18717;48.034;11.186;2023-12-28T12:51:45;11.05;;;10.45;;
32228;SDS011;18717;48.034;11.186;2023-12-28T12:54:16;9.82;;;9.32;;
32228;SDS011;18717;48.034;11.186;2023-12-28T12:59:12;9.82;;;9.27;;
32228;SDS011;18717;48.034;11.186;2023-12-28T13:01:42;11.52;;;10.52;;
32228;SDS011;18717;48.034;11.186;2023-12-28T13:04:11;9.75;;;9.07;;
32228;SDS011;18717;48.034;11.186;2023-12-28T13:06:39;9.30;;;8.65;;
32228;SDS011;18717;48.034;11.186;2023-12-28T13:09:06;9.85;;;9.25;;
32228;SDS011;18717;48.034;11.186;2023-12-28T13:11:38;10.27;;;9.68;;
32228;SDS011;18717;48.034;11.186;2023-12-28T13:14:06;11.07;;;10.18;;
32228;SDS011;18717;48.034;11.186;2023-12-28T13:16:33;9.77;;;8.90;;
32228;SDS011;18717;48.034;11.186;2023-12-28T13:19:01;10.93;;;10.23;;
32228;SDS011;18717;48.034;11.186;2023-12-28T13:21:29;10.93;;;10.15;;
32228;SDS011;18717;48.034;11.186;2023-12-28T13:23:57;10.98;;;10.27;;
32228;SDS011;18717;48.034;11.186;2023-12-28T13:26:27;11.25;;;10.25;;
32228;SDS011;18717;48.034;11.186;2023-12-28T13:28:56;11.35;;;10.35;;
32228;SDS011;18717;48.034;11.186;2023-12-28T13:31:24;10.00;;;9.40;;
32228;SDS011;18717;48.034;11.186;2023-12-28T13:33:52;9.95;;;9.25;;
32228;SDS011;18717;48.034;11.186;2023-12-28T13:36:20;9.77;;;9.18;;
32228;SDS011;18717;48.034;11.186;2023-12-28T13:38:48;9.60;;;9.00;;
32228;SDS011;18717;48.034;11.186;2023-12-28T13:41:16;9.45;;;8.95;;
32228;SDS011;18717;48.034;11.186;2023-12-28T13:43:44;10.68;;;10.07;;
32228;SDS011;18717;48.034;11.186;2023-12-28T13:46:13;10.32;;;9.40;;
32228;SDS011;18717;48.034;11.186;2023-12-28T13:48:40;9.75;;;9.15;;
32228;SDS011;18717;48.034;11.186;2023-12-28T13:51:09;10.07;;;9.48;;
32228;SDS011;18717;48.034;11.186;2023-12-28T13:53:37;10.00;;;9.30;;
32228;SDS011;18717;48.034;11.186;2023-12-28T13:56:07;9.82;;;9.30;;
32228;SDS011;18717;48.034;11.186;2023-12-28T13:58:35;9.88;;;9.27;;
32228;SDS011;18717;48.034;11.186;2023-12-28T14:01:04;9.35;;;8.70;;
32228;SDS011;18717;48.034;11.186;2023-12-28T14:03:33;10.13;;;9.43;;
32228;SDS011;18717;48.034;11.186;2023-12-28T14:06:01;10.20;;;9.60;;
32228;SDS011;18717;48.034;11.186;2023-12-28T14:08:29;10.20;;;9.60;;
32228;SDS011;18717;48.034;11.186;2023-12-28T14:10:57;10.77;;;10.07;;
32228;SDS011;18717;48.034;11.186;2023-12-28T14:13:25;9.93;;;9.10;;
32228;SDS011;18717;48.034;11.186;2023-12-28T14:15:53;10.23;;;9.43;;
32228;SDS011;18717;48.034;11.186;2023-12-28T14:18:21;10.40;;;9.70;;
32228;SDS011;18717;48.034;11.186;2023-12-28T14:20:50;11.30;;;10.52;;
32228;SDS011;18717;48.034;11.186;2023-12-28T14:23:20;11.48;;;10.48;;
32228;SDS011;18717;48.034;11.186;2023-12-28T14:25:53;12.98;;;11.40;;
32228;SDS011;18717;48.034;11.186;2023-12-28T14:28:22;10.70;;;9.85;;
32228;SDS011;18717;48.034;11.186;2023-12-28T14:30:53;10.73;;;10.00;;
32228;SDS011;18717;48.034;11.186;2023-12-28T14:33:21;11.43;;;10.45;;
32228;SDS011;18717;48.034;11.186;2023-12-28T14:35:51;10.23;;;9.50;;
32228;SDS011;18717;48.034;11.186;2023-12-28T14:38:19;9.80;;;9.18;;